Time;durP1;ratioP1;P1;durP2;ratioP2;P2;SDS_P1;SDS_P2;PMS_P1;PMS_P2;Temp;Humidity;BMP_temperature;BMP_pressure;BME280_temperature;BME280_humidity;BME280_pressure;Samples;Min_cycle;Max_cycle;Signal;HPM_P1;HPM_P2
2022/05/14 00:00:29;;;;;;;;;6.75;6.75;;;;;18.63;41.87;101731.19;5115355;27;44925;-62
2022/05/14 00:02:55;;;;;;;;;6.67;4.00;;;;;18.39;42.26;101693.09;5132637;27;45679;-73
2022/05/14 00:05:24;;;;;;;;;9.00;3.00;;;;;18.39;42.19;101703.91;5127486;27;45142;-62
2022/05/14 00:07:51;;;;;;;;;5.67;5.67;;;;;18.56;42.26;101739.28;5118682;27;44957;-64
2022/05/14 00:10:19;;;;;;;;;7.00;5.67;;;;;18.44;41.94;101722.00;5115154;27;45196;-64
2022/05/14 00:15:28;;;;;;;;;5.00;5.00;;;;;18.52;42.06;101739.22;5128069;27;44759;-65
2022/05/14 00:17:54;;;;;;;;;6.00;4.33;;;;;18.34;42.39;101705.66;5126409;27;45154;-65
2022/05/14 00:20:23;;;;;;;;;6.00;5.67;;;;;18.24;42.64;101704.66;5119572;27;45112;-66
2022/05/14 00:22:49;;;;;;;;;5.00;5.00;;;;;18.37;42.56;101742.69;5113831;27;46251;-66
2022/05/14 00:25:14;;;;;;;;;8.67;5.33;;;;;18.39;43.11;101743.59;5120680;27;45062;-65
2022/05/14 00:27:44;;;;;;;;;4.67;4.67;;;;;18.31;42.93;101735.41;5114644;27;44921;-63
2022/05/14 00:30:11;;;;;;;;;6.00;5.00;;;;;18.32;43.45;101747.16;5115882;27;45161;-63
2022/05/14 00:32:37;;;;;;;;;4.33;3.00;;;;;18.20;43.51;101737.09;5114859;27;45548;-63
2022/05/14 00:35:04;;;;;;;;;5.67;3.33;;;;;18.08;43.78;101726.13;5120300;27;45243;-63
2022/05/14 00:37:29;;;;;;;;;5.00;3.33;;;;;17.91;43.62;101691.69;5115566;27;45032;-65
2022/05/14 00:39:55;;;;;;;;;3.00;3.00;;;;;18.05;43.63;101727.03;5113783;27;45114;-70
2022/05/14 00:42:20;;;;;;;;;4.00;3.00;;;;;18.13;43.36;101729.78;5114814;27;45600;-65
2022/05/14 00:44:46;;;;;;;;;4.00;4.00;;;;;18.16;43.45;101735.25;5114869;27;44878;-62
2022/05/14 00:47:16;;;;;;;;;7.00;6.67;;;;;18.20;43.53;101739.81;5114453;27;45101;-70
2022/05/14 00:49:42;;;;;;;;;3.00;3.00;;;;;18.06;43.46;101718.00;5114747;27;45140;-73
2022/05/14 00:52:13;;;;;;;;;7.67;6.00;;;;;18.08;43.35;101715.31;5118277;27;45480;-63
2022/05/14 00:54:48;;;;;;;;;5.00;5.00;;;;;17.99;43.75;101708.91;5113851;27;45339;-64
2022/05/14 00:57:19;;;;;;;;;4.00;4.00;;;;;17.95;43.70;101714.28;5114276;27;45357;-63
2022/05/14 00:59:45;;;;;;;;;7.00;3.33;;;;;17.98;43.64;101720.66;5114019;27;45110;-64
2022/05/14 01:02:10;;;;;;;;;6.67;4.00;;;;;17.65;43.65;101656.22;5114250;27;45703;-64
2022/05/14 01:04:39;;;;;;;;;4.00;4.00;;;;;17.98;43.93;101720.66;5114367;27;45180;-63
2022/05/14 01:07:11;;;;;;;;;10.00;4.00;;;;;17.93;44.03;101724.16;5114050;27;45047;-72
2022/05/14 01:09:39;;;;;;;;;5.33;4.00;;;;;17.75;43.78;101693.31;5120243;27;47538;-63
2022/05/14 01:12:07;;;;;;;;;3.00;3.00;;;;;17.84;44.09;101724.94;5117449;27;45360;-62
2022/05/14 01:14:32;;;;;;;;;4.00;4.00;;;;;17.89;44.28;101733.16;5114196;27;45071;-62
2022/05/14 01:16:57;;;;;;;;;5.00;3.33;;;;;17.86;44.09;101731.25;5113995;27;45233;-64
2022/05/14 01:19:23;;;;;;;;;3.00;3.00;;;;;17.77;44.13;101706.81;5114633;27;45052;-66
2022/05/14 01:22:04;;;;;;;;;5.00;3.00;;;;;17.86;43.97;101720.44;5114241;27;46267;-65
2022/05/14 01:27:32;;;;;;;;;3.33;2.67;;;;;17.81;43.68;101711.38;5117482;27;45104;-69
2022/05/14 01:29:58;;;;;;;;;13.25;9.50;;;;;17.84;43.83;101719.53;5116250;27;44907;-66
2022/05/14 01:32:23;;;;;;;;;4.00;4.00;;;;;17.70;44.36;101692.31;5112721;27;45710;-64
2022/05/14 01:34:50;;;;;;;;;4.33;4.33;;;;;17.87;43.84;101714.19;5113140;27;45324;-67
2022/05/14 01:37:16;;;;;;;;;5.33;4.33;;;;;17.86;44.11;101718.66;5113231;27;45055;-67
2022/05/14 01:39:41;;;;;;;;;3.00;3.00;;;;;17.86;44.27;101709.63;5111450;27;45145;-63
2022/05/14 01:42:07;;;;;;;;;3.00;2.33;;;;;17.70;44.05;101692.31;5125471;27;46207;-65
2022/05/14 01:44:34;;;;;;;;;3.67;3.00;;;;;17.81;44.45;101720.38;5110760;27;45175;-64
2022/05/14 01:46:59;;;;;;;;;4.00;3.00;;;;;17.79;44.25;101721.28;5118527;27;45012;-63
2022/05/14 01:49:24;;;;;;;;;4.33;3.00;;;;;17.78;44.36;101720.34;5125433;27;45099;-63
2022/05/14 01:51:50;;;;;;;;;4.67;4.67;;;;;17.75;44.33;101706.81;5114317;27;45809;-63
2022/05/14 01:54:15;;;;;;;;;4.33;3.00;;;;;17.75;44.35;101700.50;5118412;27;45731;-69
2022/05/14 01:56:41;;;;;;;;;4.33;3.00;;;;;17.73;44.08;101705.88;5118019;27;45296;-67
2022/05/14 01:59:06;;;;;;;;;2.33;2.33;;;;;17.70;44.32;101703.13;5133032;27;45201;-66
2022/05/14 02:01:34;;;;;;;;;2.00;2.00;;;;;17.68;44.25;101703.09;5126683;27;45828;-71
2022/05/14 02:04:09;;;;;;;;;3.00;3.00;;;;;17.67;44.66;101705.81;5125982;27;45079;-64
2022/05/14 02:06:35;;;;;;;;;6.33;4.00;;;;;17.54;43.95;101680.44;5124629;27;45036;-64
2022/05/14 02:09:01;;;;;;;;;4.00;2.00;;;;;17.65;44.22;101700.41;5112559;27;45309;-66
2022/05/14 02:11:28;;;;;;;;;5.00;4.00;;;;;17.63;44.23;101690.44;5115203;27;45498;-65
2022/05/14 02:13:54;;;;;;;;;10.25;8.75;;;;;17.67;44.29;101703.13;5127564;27;45113;-65
2022/05/14 02:16:19;;;;;;;;;7.33;4.00;;;;;17.52;43.94;101665.06;5121598;27;45123;-69
2022/05/14 02:18:45;;;;;;;;;4.00;2.00;;;;;17.69;43.98;101695.94;5135004;27;45004;-66
2022/05/14 02:21:12;;;;;;;;;2.67;2.67;;;;;17.61;44.41;101681.41;5135060;27;45224;-65
2022/05/14 02:23:38;;;;;;;;;3.67;2.33;;;;;17.69;44.28;101687.81;5134717;27;45138;-65
2022/05/14 02:26:05;;;;;;;;;3.00;3.00;;;;;17.45;43.93;101658.69;5135161;27;45043;-62
2022/05/14 02:28:30;;;;;;;;;4.33;3.00;;;;;17.66;44.14;101696.78;5136278;27;44948;-63
2022/05/14 02:30:56;;;;;;;;;1.67;1.67;;;;;17.65;43.86;101689.59;5135937;27;45102;-64
2022/05/14 02:33:21;;;;;;;;;2.67;2.67;;;;;17.65;43.87;101689.59;5134703;27;45393;-69
2022/05/14 02:35:46;;;;;;;;;3.00;2.00;;;;;17.67;44.07;101705.81;5117813;27;45503;-65
2022/05/14 02:38:14;;;;;;;;;2.67;1.33;;;;;17.59;44.51;101688.59;5119052;27;44938;-63
2022/05/14 02:40:39;;;;;;;;;3.67;2.33;;;;;17.67;44.19;101701.31;5115550;27;46240;-62
2022/05/14 02:43:05;;;;;;;;;3.67;2.00;;;;;17.64;44.29;101701.28;5118782;27;44928;-65
2022/05/14 02:45:30;;;;;;;;;4.00;2.00;;;;;17.61;44.13;101698.53;5119639;27;45336;-64
2022/05/14 02:47:55;;;;;;;;;5.33;4.00;;;;;17.47;44.52;101667.72;5117498;27;45293;-69
2022/05/14 02:50:21;;;;;;;;;2.00;1.00;;;;;17.52;44.49;101693.00;5130071;27;46104;-72
2022/05/14 02:52:47;;;;;;;;;4.00;3.67;;;;;17.55;44.71;101705.66;5124665;27;45751;-64
2022/05/14 02:55:13;;;;;;;;;4.00;4.00;;;;;17.48;44.69;101708.25;5123383;27;45087;-62
2022/05/14 02:57:38;;;;;;;;;4.25;4.25;;;;;17.28;44.96;101688.19;5128288;27;45181;-62
2022/05/14 03:00:06;;;;;;;;;7.33;4.67;;;;;17.36;45.03;101691.91;5121267;27;45376;-61
2022/05/14 03:02:32;;;;;;;;;4.25;4.25;;;;;17.24;44.96;101686.31;5116209;27;44993;-65
2022/05/14 03:04:57;;;;;;;;;4.67;3.33;;;;;17.17;45.09;101660.13;5120808;27;45189;-64
2022/05/14 03:07:22;;;;;;;;;4.00;4.00;;;;;17.43;45.08;101714.50;5116656;27;45029;-63
2022/05/14 03:09:48;;;;;;;;;2.00;2.00;;;;;17.44;44.91;101705.50;5136046;27;45457;-64
2022/05/14 03:12:15;;;;;;;;;9.00;3.00;;;;;17.41;45.09;101708.19;5134698;27;45007;-63
2022/05/14 03:17:17;;;;;;;;;3.67;3.00;;;;;17.45;45.17;101701.91;6056254;22;45256;-65
2022/05/14 03:19:43;;;;;;;;;4.67;4.67;;;;;17.42;44.81;101697.41;5073826;28;45349;-62
2022/05/14 03:22:09;;;;;;;;;4.67;4.67;;;;;17.37;44.90;101682.88;5090927;27;45241;-62
2022/05/14 03:24:36;;;;;;;;;5.00;4.00;;;;;17.08;44.97;101624.00;5076923;28;45051;-65
2022/05/14 03:27:02;;;;;;;;;1.33;1.33;;;;;17.48;44.53;101700.16;5095338;28;45055;-63
2022/05/14 03:29:28;;;;;;;;;3.00;2.00;;;;;17.21;44.87;101656.56;5094830;28;45158;-64
2022/05/14 03:31:55;;;;;;;;;3.00;2.00;;;;;17.44;44.61;101700.09;5091437;28;45376;-74
2022/05/14 03:34:20;;;;;;;;;2.67;2.67;;;;;17.42;44.71;101704.56;5092770;28;45168;-63
2022/05/14 03:36:46;;;;;;;;;3.00;3.00;;;;;17.18;45.01;101659.25;5094672;28;44990;-63
2022/05/14 03:39:11;;;;;;;;;5.00;2.67;;;;;17.31;44.53;101697.22;5092027;28;45998;-64
2022/05/14 03:41:37;;;;;;;;;2.33;2.00;;;;;17.31;44.43;101682.84;5094379;28;44981;-64
2022/05/14 03:44:03;;;;;;;;;3.67;3.67;;;;;17.17;44.17;101671.81;5094587;28;45153;-65
2022/05/14 03:46:28;;;;;;;;;4.33;1.33;;;;;17.33;44.69;101699.97;5095248;28;45051;-64
2022/05/14 03:48:54;;;;;;;;;2.00;2.00;;;;;17.34;44.87;101703.56;5094689;28;45734;-65
2022/05/14 03:51:19;;;;;;;;;3.00;3.00;;;;;17.29;45.25;101706.19;5089560;28;45059;-63
2022/05/14 03:53:44;;;;;;;;;5.33;2.33;;;;;17.15;45.09;101683.50;5094244;28;45242;-65
2022/05/14 03:56:11;;;;;;;;;1.67;1.67;;;;;17.23;45.32;101712.44;5094798;28;45167;-62
2022/05/14 03:58:37;;;;;;;;;3.33;3.00;;;;;17.18;45.04;101697.94;5094371;28;45842;-65
2022/05/14 04:01:04;;;;;;;;;2.00;1.00;;;;;17.19;45.20;101704.25;5092974;28;45085;-63
2022/05/14 04:03:30;;;;;;;;;3.67;2.00;;;;;17.19;45.22;101705.19;5093443;28;45246;-67
2022/05/14 04:05:56;;;;;;;;;5.67;2.67;;;;;16.75;45.07;101629.81;5094167;28;44860;-65
2022/05/14 04:08:21;;;;;;;;;4.00;3.00;;;;;16.97;44.96;101668.84;5093229;28;45735;-62
2022/05/14 04:10:46;;;;;;;;;5.33;2.67;;;;;17.18;45.15;101702.47;5094373;28;44981;-64
2022/05/14 04:13:12;;;;;;;;;2.33;2.33;;;;;17.13;45.46;101714.09;5093129;28;45154;-66
2022/05/14 04:15:38;;;;;;;;;2.00;1.67;;;;;17.10;45.53;101699.63;5092817;28;44928;-64
2022/05/14 04:18:05;;;;;;;;;4.33;3.67;;;;;16.92;45.66;101678.66;5094058;28;45702;-63
2022/05/14 04:20:30;;;;;;;;;3.33;3.00;;;;;17.01;45.52;101702.19;5093909;28;45622;-63
2022/05/14 04:22:56;;;;;;;;;5.00;3.33;;;;;16.84;45.20;101686.59;5093840;28;45040;-64
2022/05/14 04:25:23;;;;;;;;;7.25;4.00;;;;;16.98;45.14;101705.75;5092063;28;45015;-65
2022/05/14 04:27:49;;;;;;;;;5.00;2.00;;;;;16.49;45.43;101615.91;5092902;28;45470;-70
2022/05/14 04:30:16;;;;;;;;;6.67;3.33;;;;;16.94;45.50;101698.47;5093123;28;45821;-69
2022/05/14 04:32:42;;;;;;;;;6.00;4.50;;;;;16.79;45.25;101682.91;5092177;28;45223;-63
2022/05/14 04:35:09;;;;;;;;;3.33;2.33;;;;;16.92;45.23;101706.56;5091016;28;45162;-65
2022/05/14 04:37:35;;;;;;;;;4.75;4.75;;;;;16.82;46.13;101682.97;5092354;28;45221;-64
2022/05/14 04:40:00;;;;;;;;;4.25;4.25;;;;;16.95;45.87;101706.59;5093564;28;45513;-65
2022/05/14 04:42:26;;;;;;;;;5.33;4.00;;;;;16.86;45.61;101687.59;5093744;28;45041;-73
2022/05/14 04:44:51;;;;;;;;;9.00;4.33;;;;;16.97;45.55;101713.84;5075786;28;45389;-67
2022/05/14 04:47:17;;;;;;;;;6.00;4.00;;;;;16.95;45.55;101722.81;5093567;28;45478;-68
2022/05/14 04:49:48;;;;;;;;;3.00;3.00;;;;;17.01;45.48;101715.69;5093154;28;44974;-67
2022/05/14 04:52:13;;;;;;;;;3.00;2.00;;;;;17.03;45.57;101712.13;5093880;28;45195;-63
2022/05/14 04:54:39;;;;;;;;;2.00;2.00;;;;;17.05;45.37;101715.75;5094310;28;45326;-65
2022/05/14 04:57:05;;;;;;;;;3.75;3.00;;;;;16.76;45.22;101658.59;5093407;28;45142;-66
2022/05/14 04:59:32;;;;;;;;;2.33;2.33;;;;;16.86;44.78;101674.09;5093022;28;45133;-64
2022/05/14 05:04:42;;;;;;;;;5.33;2.67;;;;;16.93;45.50;101691.28;5093397;28;45015;-69
2022/05/14 05:07:08;;;;;;;;;5.67;2.67;;;;;17.03;45.99;101708.53;5093250;28;45755;-68
2022/05/14 05:09:33;;;;;;;;;4.00;2.25;;;;;16.76;45.25;101670.31;5093052;28;44998;-67
2022/05/14 05:11:59;;;;;;;;;3.00;3.00;;;;;17.11;45.13;101714.97;5093546;28;45159;-64
2022/05/14 05:14:25;;;;;;;;;5.33;2.67;;;;;17.10;45.47;101713.13;5093499;28;44972;-71
2022/05/14 05:16:51;;;;;;;;;2.67;2.67;;;;;17.04;45.15;101702.22;5093323;28;45476;-63
2022/05/14 05:19:17;;;;;;;;;3.33;3.33;;;;;17.01;44.93;101695.00;5091163;28;45113;-63
2022/05/14 05:21:43;;;;;;;;;3.33;3.33;;;;;16.87;45.39;101672.28;5093950;28;45014;-66
2022/05/14 05:24:09;;;;;;;;;3.00;2.33;;;;;17.04;45.25;101721.13;5089103;28;45365;-63
2022/05/14 05:26:36;;;;;;;;;3.67;3.67;;;;;16.83;45.39;101678.47;5092647;28;45118;-67
2022/05/14 05:29:03;;;;;;;;;2.00;2.00;;;;;17.06;45.44;101720.28;5093078;28;44995;-65
2022/05/14 05:31:28;;;;;;;;;3.33;1.67;;;;;17.06;44.94;101722.97;5090811;28;45333;-64
2022/05/14 05:33:54;;;;;;;;;3.67;3.00;;;;;17.14;45.22;101725.78;5092838;28;45062;-70
2022/05/14 05:36:19;;;;;;;;;11.50;9.50;;;;;17.21;44.75;101725.00;5092442;28;45201;-64
2022/05/14 05:38:44;;;;;;;;;4.33;3.33;;;;;17.23;45.08;101730.44;5092875;28;44945;-63
2022/05/14 05:41:10;;;;;;;;;12.00;9.25;;;;;17.08;45.37;101690.63;5092455;28;45130;-64
2022/05/14 05:43:35;;;;;;;;;4.67;3.33;;;;;17.08;45.25;101690.63;5073946;28;45075;-70
2022/05/14 05:46:01;;;;;;;;;8.50;4.00;;;;;17.35;45.00;101724.28;5091714;28;45784;-66
2022/05/14 05:48:26;;;;;;;;;7.00;4.00;;;;;17.35;44.71;101736.00;5089959;28;45133;-64
2022/05/14 05:50:53;;;;;;;;;11.50;7.75;;;;;17.38;45.24;101714.44;5091971;28;45139;-63
2022/05/14 05:56:46;;;;;;;;;7.50;5.25;;;;;16.90;44.93;101631.84;5089633;28;45198;-65
2022/05/14 05:58:49;;;;;;;;;10.50;8.25;;;;;17.45;44.20;101729.81;5085264;28;45273;-65
2022/05/14 06:01:14;;;;;;;;;6.25;5.25;;;;;17.37;44.50;101712.59;5087083;28;45213;-63
2022/05/14 06:03:41;;;;;;;;;5.00;5.00;;;;;17.50;44.42;101735.31;5085497;28;45250;-63
2022/05/14 06:06:06;;;;;;;;;5.00;5.00;;;;;17.39;44.84;101732.47;5087674;28;46121;-62
2022/05/14 06:08:31;;;;;;;;;4.25;4.25;;;;;17.39;44.64;101734.25;5072102;28;45282;-64
2022/05/14 06:10:57;;;;;;;;;9.50;8.00;;;;;17.35;44.74;101737.81;5092800;28;45328;-69
2022/05/14 06:13:22;;;;;;;;;9.50;8.25;;;;;17.41;44.56;101744.19;5088598;28;45047;-64
2022/05/14 06:15:47;;;;;;;;;8.67;5.67;;;;;17.42;44.99;101745.09;5086023;28;45979;-64
2022/05/14 06:18:13;;;;;;;;;6.50;6.50;;;;;17.34;44.81;101735.97;5090117;28;44968;-63
2022/05/14 06:20:39;;;;;;;;;12.25;9.00;;;;;17.29;45.00;101714.28;5081551;28;45057;-66
2022/05/14 06:23:05;;;;;;;;;11.00;9.25;;;;;17.32;44.68;101722.44;5091677;28;45091;-70
2022/05/14 06:25:31;;;;;;;;;8.50;6.25;;;;;17.54;44.54;101749.75;5089732;28;45525;-64
2022/05/14 06:27:56;;;;;;;;;7.25;7.25;;;;;17.40;44.08;101723.47;5089800;28;45392;-73
2022/05/14 06:30:21;;;;;;;;;5.33;5.00;;;;;17.28;44.14;101708.00;5091799;28;45017;-64
2022/05/14 06:32:47;;;;;;;;;5.33;4.00;;;;;17.45;44.63;101746.03;5090233;28;45231;-69
2022/05/14 06:35:12;;;;;;;;;18.50;13.75;;;;;17.41;44.30;101729.78;5091350;28;47489;-71
2022/05/14 06:37:37;;;;;;;;;6.75;4.00;;;;;17.60;44.44;101756.16;5091830;28;44958;-63
2022/05/14 06:40:04;;;;;;;;;4.75;4.50;;;;;17.40;43.75;101714.47;5090201;28;45759;-69
2022/05/14 06:42:29;;;;;;;;;6.25;6.25;;;;;17.69;44.18;101756.28;5073633;28;45136;-77
2022/05/14 06:44:56;;;;;;;;;9.00;7.75;;;;;17.66;44.09;101748.13;5091270;28;45576;-64
2022/05/14 06:47:21;;;;;;;;;14.25;13.50;;;;;17.79;44.32;101751.91;5090495;28;45015;-63
2022/05/14 06:49:46;;;;;;;;;10.00;9.00;;;;;17.79;44.25;101757.31;5090316;28;45117;-73
2022/05/14 06:52:16;;;;;;;;;8.75;7.75;;;;;17.46;44.24;101720.84;5091381;28;45033;-64
2022/05/14 06:54:45;;;;;;;;;7.25;5.00;;;;;17.56;44.62;101745.31;5085623;27;45108;-62
2022/05/14 06:57:12;;;;;;;;;8.00;8.00;;;;;17.63;44.64;101739.09;5085222;28;45167;-62
2022/05/14 06:59:38;;;;;;;;;13.00;8.50;;;;;17.57;44.57;101733.59;5093781;28;45251;-64
2022/05/14 07:02:05;;;;;;;;;6.25;6.25;;;;;17.75;44.13;101758.19;5095587;28;44905;-66
2022/05/14 07:07:14;;;;;;;;;10.25;8.00;;;;;17.73;43.68;101723.91;5095192;28;45149;-66
2022/05/14 07:09:39;;;;;;;;;7.00;5.25;;;;;17.98;43.61;101755.78;5094283;28;45402;-68
2022/05/14 07:12:09;;;;;;;;;5.00;5.00;;;;;18.07;43.27;101748.69;5090567;28;45275;-69
2022/05/14 07:14:34;;;;;;;;;7.75;7.75;;;;;18.18;43.21;101760.50;5094716;28;45156;-63
2022/05/14 07:17:00;;;;;;;;;4.75;4.75;;;;;17.87;43.37;101716.91;5095207;28;45098;-64
2022/05/14 07:19:26;;;;;;;;;12.50;10.50;;;;;18.10;43.34;101740.56;5094909;28;45220;-65
2022/05/14 07:21:53;;;;;;;;;8.00;7.75;;;;;18.23;43.04;101747.94;5089211;28;45143;-67
2022/05/14 07:24:28;;;;;;;;;6.50;6.50;;;;;18.20;42.85;101729.00;5074383;28;48167;-64
2022/05/14 07:26:56;;;;;;;;;5.50;5.00;;;;;18.21;42.43;101698.31;5093054;28;44917;-64
2022/05/14 07:29:24;;;;;;;;;10.00;6.00;;;;;18.41;41.94;101726.50;5090624;28;45088;-71
2022/05/14 07:31:50;;;;;;;;;4.25;4.25;;;;;18.61;42.15;101739.31;5092435;28;45367;-73
2022/05/14 07:34:15;;;;;;;;;5.75;5.75;;;;;18.48;41.88;101727.47;5094620;28;45525;-71
2022/05/14 07:36:59;;;;;;;;;4.00;4.00;;;;;18.38;41.99;101707.53;5094097;28;45256;-73
2022/05/14 07:39:29;;;;;;;;;5.67;5.00;;;;;18.62;42.14;101723.97;5093707;28;45136;-74
2022/05/14 07:41:59;;;;;;;;;5.25;5.25;;;;;18.37;42.02;101678.66;5094167;28;44896;-73
2022/05/14 07:44:31;;;;;;;;;4.67;4.67;;;;;18.68;41.77;101742.97;5092463;28;45780;-73
2022/05/14 07:46:57;;;;;;;;;3.00;3.00;;;;;18.47;41.58;101686.84;5092307;28;45198;-72
2022/05/14 07:49:25;;;;;;;;;7.00;7.00;;;;;18.79;41.23;101712.41;5094110;28;45105;-73
2022/05/14 07:51:53;;;;;;;;;11.00;8.25;;;;;19.03;41.02;101731.56;5094243;28;45157;-72
2022/05/14 07:54:20;;;;;;;;;27.75;23.50;;;;;19.08;40.73;101718.94;5094124;28;45642;-74
2022/05/14 07:56:45;;;;;;;;;8.25;5.00;;;;;19.04;40.39;101690.94;5093630;28;45074;-73
2022/05/14 07:59:12;;;;;;;;;10.50;9.00;;;;;19.36;40.59;101733.56;5093016;28;44954;-72
2022/05/14 08:01:40;;;;;;;;;4.00;4.00;;;;;19.34;40.26;101697.44;5093736;28;45146;-72
2022/05/14 08:04:06;;;;;;;;;3.67;3.67;;;;;19.28;39.83;101675.72;5094089;28;45635;-72
2022/05/14 08:06:31;;;;;;;;;5.00;4.00;;;;;19.65;40.38;101720.19;5093188;28;45151;-72
2022/05/14 08:08:57;;;;;;;;;4.67;3.00;;;;;19.51;39.76;101684.84;5092362;28;45082;-74
2022/05/14 08:11:22;;;;;;;;;5.75;4.25;;;;;19.73;40.03;101716.59;5093824;28;45240;-75
2022/05/14 08:13:48;;;;;;;;;7.33;4.00;;;;;19.62;39.95;101690.34;5093297;28;45541;-74
2022/05/14 08:16:13;;;;;;;;;5.00;5.00;;;;;19.82;39.77;101704.00;5092785;28;45051;-72
2022/05/14 08:18:39;;;;;;;;;7.00;7.00;;;;;19.98;39.45;101714.88;5092924;28;45096;-73
2022/05/14 08:26:34;;;;;;;;;4.00;4.00;;;;;20.02;39.11;101689.59;5092713;28;44945;-73
2022/05/14 08:29:01;;;;;;;;;4.33;3.33;;;;;20.25;38.61;101714.06;5093552;28;44985;-72
2022/05/14 08:31:26;;;;;;;;;6.33;6.33;;;;;20.35;38.52;101713.16;5093390;28;45128;-72
2022/05/14 08:33:52;;;;;;;;;5.33;4.67;;;;;20.49;38.76;101717.69;5090504;28;45531;-72
2022/05/14 08:36:17;;;;;;;;;5.67;5.00;;;;;20.60;38.17;101718.63;5093181;28;45256;-73
2022/05/14 08:38:42;;;;;;;;;6.33;3.00;;;;;20.61;37.62;101707.75;5092703;28;45063;-71
2022/05/14 08:41:08;;;;;;;;;4.00;2.00;;;;;20.67;37.78;101716.84;5093080;28;44989;-72
2022/05/14 08:43:42;;;;;;;;;5.67;4.00;;;;;20.73;38.08;101719.56;5092469;28;45245;-73
2022/05/14 08:46:10;;;;;;;;;20.00;16.75;;;;;20.88;38.14;101722.25;5092610;28;45126;-72
2022/05/14 08:48:37;;;;;;;;;16.50;14.25;;;;;20.76;37.60;101678.84;5092737;28;45149;-74
2022/05/14 08:51:04;;;;;;;;;18.75;16.25;;;;;20.91;37.24;101673.38;5091380;28;45387;-71
2022/05/14 08:53:32;;;;;;;;;10.00;4.67;;;;;21.06;36.76;101691.47;5092347;28;45199;-71
2022/05/14 08:56:10;;;;;;;;;4.33;3.00;;;;;21.09;36.84;101685.13;5092382;28;44984;-73
2022/05/14 08:58:54;;;;;;;;;9.33;6.67;;;;;21.29;36.75;101699.56;5092610;28;45134;-73
2022/05/14 09:01:24;;;;;;;;;5.00;5.00;;;;;21.36;36.66;101686.84;5092862;28;45008;-70
2022/05/14 09:03:50;;;;;;;;;4.67;3.00;;;;;21.35;36.03;101702.25;5092120;28;45642;-73
2022/05/14 09:06:16;;;;;;;;;5.00;5.00;;;;;21.37;36.46;101696.81;5092928;28;45134;-72
2022/05/14 09:08:41;;;;;;;;;3.00;3.00;;;;;21.46;36.29;101695.88;5070809;28;45611;-72
2022/05/14 09:11:18;;;;;;;;;16.33;13.00;;;;;21.56;36.13;101699.50;5092224;28;45101;-73
2022/05/14 09:13:48;;;;;;;;;16.75;13.00;;;;;21.21;36.26;101617.13;5092454;28;45401;-72
2022/05/14 09:16:21;;;;;;;;;4.33;2.33;;;;;21.47;35.89;101654.19;5091237;28;45049;-71
2022/05/14 09:18:50;;;;;;;;;4.33;4.33;;;;;21.68;35.83;101699.47;5089578;27;45396;-71
2022/05/14 09:21:23;;;;;;;;;2.00;2.00;;;;;21.45;35.67;101656.00;5090797;28;45145;-72
2022/05/14 09:23:57;;;;;;;;;7.33;4.00;;;;;21.61;35.50;101692.22;5090445;28;45754;-72
2022/05/14 09:26:32;;;;;;;;;4.33;4.33;;;;;21.49;35.72;101666.88;5090783;28;45090;-72
2022/05/14 09:29:11;;;;;;;;;4.00;2.67;;;;;21.66;35.35;101691.31;5090973;28;45125;-72
2022/05/14 09:31:52;;;;;;;;;6.00;4.33;;;;;21.76;35.36;101685.81;5089016;28;45326;-74
2022/05/14 09:34:18;;;;;;;;;12.00;10.00;;;;;21.86;34.92;101684.84;5089523;28;45583;-72
2022/05/14 09:36:48;;;;;;;;;6.33;3.00;;;;;21.72;34.58;101649.56;5089388;28;44965;-73
2022/05/14 09:39:16;;;;;;;;;11.25;10.75;;;;;21.97;34.64;101684.78;5090304;28;45428;-72
2022/05/14 09:41:49;;;;;;;;;6.33;4.67;;;;;21.80;34.64;101649.53;5070705;28;45198;-72
2022/05/14 09:44:20;;;;;;;;;5.00;5.00;;;;;22.02;34.66;101655.75;5086255;28;45644;-73
2022/05/14 09:46:47;;;;;;;;;4.00;4.00;;;;;22.11;34.48;101647.53;5084062;28;45295;-71
2022/05/14 09:49:27;;;;;;;;;9.00;9.00;;;;;22.34;34.12;101671.88;5090202;28;45059;-71
2022/05/14 09:52:06;;;;;;;;;4.00;3.67;;;;;22.23;33.97;101655.59;5072434;28;44963;-74
2022/05/14 09:54:43;;;;;;;;;4.67;4.00;;;;;22.31;33.71;101661.00;5084259;28;46890;-72
2022/05/14 09:57:10;;;;;;;;;11.67;8.67;;;;;22.35;34.28;101662.78;5084621;28;45159;-74
2022/05/14 09:59:39;;;;;;;;;8.67;8.67;;;;;22.42;34.17;101656.38;5091147;28;44980;-73
2022/05/14 10:02:24;;;;;;;;;6.33;4.00;;;;;22.52;33.55;101651.78;5084005;28;44892;-71
2022/05/14 10:05:14;;;;;;;;;6.33;4.00;;;;;22.56;33.83;101652.66;5079503;28;45951;-73
2022/05/14 10:07:42;;;;;;;;;7.00;5.33;;;;;22.26;33.65;101592.94;5091227;28;45064;-75
2022/05/14 10:10:52;;;;;;;;;10.33;8.00;;;;;22.59;33.62;101642.63;5071470;28;45207;-72
2022/05/14 10:13:39;;;;;;;;;2.00;2.00;;;;;22.53;33.35;101645.38;5063922;28;45233;-71
2022/05/14 10:16:16;;;;;;;;;4.33;4.00;;;;;22.61;33.43;101643.50;5089000;28;46828;-71
2022/05/14 10:19:03;;;;;;;;;10.00;5.00;;;;;22.60;33.23;101646.25;5088831;28;45209;-72
2022/05/14 10:21:44;;;;;;;;;7.00;5.33;;;;;22.63;33.75;101641.66;5088349;28;45076;-73
2022/05/14 10:27:31;;;;;;;;;5.00;5.00;;;;;22.85;33.60;101637.81;5088238;28;45397;-71
2022/05/14 10:30:17;;;;;;;;;8.33;6.00;;;;;22.87;33.40;101625.06;5088948;28;45024;-73
2022/05/14 10:32:45;;;;;;;;;3.67;3.67;;;;;23.00;33.02;101640.41;5092799;28;45184;-73
2022/05/14 10:35:21;;;;;;;;;5.00;3.00;;;;;22.97;32.75;101641.34;5095317;28;44985;-71
2022/05/14 10:37:53;;;;;;;;;3.00;3.00;;;;;22.92;32.95;101628.69;5094298;28;46282;-72
2022/05/14 10:40:40;;;;;;;;;11.67;9.33;;;;;23.07;33.16;101633.09;5093260;28;44957;-72
2022/05/14 10:43:25;;;;;;;;;4.00;4.00;;;;;23.15;32.83;101628.47;5093316;28;45058;-72
2022/05/14 10:45:54;;;;;;;;;5.33;3.00;;;;;23.18;32.75;101631.13;5092213;28;45369;-71
2022/05/14 10:48:32;;;;;;;;;5.00;3.33;;;;;23.19;32.63;101627.50;5091609;28;45168;-73
2022/05/14 10:51:00;;;;;;;;;4.33;3.00;;;;;23.16;32.61;101602.97;5091600;28;45025;-72
2022/05/14 10:53:25;;;;;;;;;6.67;6.67;;;;;23.29;32.58;101620.09;5092536;28;45230;-73
2022/05/14 10:56:13;;;;;;;;;9.67;8.67;;;;;23.32;32.39;101614.63;5092842;28;45193;-71
2022/05/14 10:58:45;;;;;;;;;6.00;4.00;;;;;23.35;32.49;101606.41;5092857;28;45469;-72
2022/05/14 11:01:27;;;;;;;;;2.00;2.00;;;;;23.35;32.54;101604.56;5095070;28;45352;-72
2022/05/14 11:04:11;;;;;;;;;4.67;4.33;;;;;23.44;32.34;101617.16;5092981;28;44925;-73
2022/05/14 11:06:48;;;;;;;;;6.33;6.00;;;;;23.42;32.22;101612.66;5094663;28;45042;-72
2022/05/14 11:09:19;;;;;;;;;5.67;5.67;;;;;23.39;32.42;101612.72;5094010;28;45635;-72
2022/05/14 11:11:53;;;;;;;;;6.00;4.00;;;;;23.44;31.71;101613.53;5093727;28;45114;-73
2022/05/14 11:14:19;;;;;;;;;4.00;4.00;;;;;23.40;32.19;101619.97;5093519;28;44936;-73
2022/05/14 11:16:46;;;;;;;;;6.00;4.67;;;;;23.29;31.97;101617.38;5093966;28;45078;-73
2022/05/14 11:19:26;;;;;;;;;10.00;10.00;;;;;23.30;32.42;101608.28;5093720;28;46382;-72
2022/05/14 11:21:51;;;;;;;;;6.33;5.67;;;;;22.78;31.92;101508.94;5093675;28;45230;-73
2022/05/14 11:24:17;;;;;;;;;8.67;7.33;;;;;23.13;31.47;101573.03;5091510;28;45011;-71
2022/05/14 11:26:49;;;;;;;;;8.00;7.67;;;;;23.19;32.20;101578.41;5092620;28;44924;-73
2022/05/14 11:29:25;;;;;;;;;12.33;5.67;;;;;23.03;32.11;101553.13;5085902;28;46565;-72
2022/05/14 11:32:11;;;;;;;;;3.67;3.00;;;;;23.06;32.02;101568.56;5091869;28;45137;-75
2022/05/14 11:34:37;;;;;;;;;14.33;14.33;;;;;23.23;32.55;101584.72;5092432;28;45531;-72
2022/05/14 11:37:05;;;;;;;;;6.67;4.67;;;;;23.07;32.05;101549.50;5090687;28;45016;-71
2022/05/14 11:39:36;;;;;;;;;4.67;4.67;;;;;23.24;31.98;101581.97;5072199;28;47842;-72
2022/05/14 11:42:25;;;;;;;;;19.00;16.75;;;;;23.33;32.10;101573.69;5090016;27;45397;-72
2022/05/14 11:45:03;;;;;;;;;6.00;3.00;;;;;23.32;32.19;101566.41;5087409;28;45029;-72
2022/05/14 11:47:46;;;;;;;;;6.67;5.33;;;;;23.40;31.74;101579.97;5075239;28;45092;-73
2022/05/14 11:50:16;;;;;;;;;7.00;4.00;;;;;23.36;31.80;101579.09;5092864;28;45509;-73
2022/05/14 11:52:52;;;;;;;;;5.00;4.33;;;;;23.45;32.18;101577.19;5092301;28;45000;-72
2022/05/14 11:55:27;;;;;;;;;4.67;4.00;;;;;23.36;31.82;101572.72;5073194;28;44949;-73